Time;durP1;ratioP1;P1;durP2;ratioP2;P2;SDS_P1;SDS_P2;PMS_P1;PMS_P2;Temp;Humidity;BMP_temperature;BMP_pressure;BME280_temperature;BME280_humidity;BME280_pressure;Samples;Min_cycle;Max_cycle;Signal;HPM_P1;HPM_P2
2020/12/08 00:00:06;;;;;;;2.63;0.70;;;103.20;2022.40;;;;;;5099915;28;20032;-73
2020/12/08 00:02:32;;;;;;;1.63;0.80;;;102.90;2022.40;;;;;;5100389;28;20047;-72
2020/12/08 00:04:57;;;;;;;1.02;0.63;;;103.20;2022.40;;;;;;5100137;28;20419;-73
2020/12/08 00:07:23;;;;;;;1.42;0.60;;;128.10;2073.60;;;;;;5099993;28;20024;-74
2020/12/08 00:09:49;;;;;;;1.13;0.63;;;103.20;2048.00;;;;;;5099687;28;20024;-73
2020/12/08 00:12:15;;;;;;;0.95;0.75;;;103.30;2048.00;;;;;;5099600;28;20475;-71
2020/12/08 00:14:40;;;;;;;1.70;0.90;;;103.30;2048.00;;;;;;5100198;28;20024;-75
2020/12/08 00:17:06;;;;;;;1.75;0.82;;;128.10;2048.00;;;;;;5099584;28;20055;-72
2020/12/08 00:19:32;;;;;;;4.78;2.40;;;128.00;2022.40;;;;;;5099019;28;20016;-72
2020/12/08 00:21:58;;;;;;;1.42;0.80;;;103.20;1996.80;;;;;;5099769;28;20107;-71
2020/12/08 00:24:25;;;;;;;1.52;0.88;;;102.80;1996.80;;;;;;5099792;28;20024;-73
2020/12/08 00:26:51;;;;;;;1.52;0.80;;;102.70;2048.00;;;;;;5099652;28;20020;-71
2020/12/08 00:29:16;;;;;;;4.80;2.15;;;103.10;1971.20;;;;;;5099897;28;20376;-72
2020/12/08 00:31:42;;;;;;;3.55;1.73;;;103.20;1996.80;;;;;;5081358;28;20028;-70
2020/12/08 00:34:08;;;;;;;2.22;1.20;;;103.10;2022.40;;;;;;5099530;28;20363;-72
2020/12/08 00:36:34;;;;;;;1.77;0.90;;;103.20;2022.40;;;;;;5099738;28;20027;-72
2020/12/08 00:39:00;;;;;;;1.42;0.80;;;103.20;2048.00;;;;;;5099749;28;20035;-73
2020/12/08 00:41:25;;;;;;;1.67;0.90;;;103.00;1996.80;;;;;;5099075;28;20052;-73
2020/12/08 00:43:52;;;;;;;1.63;0.75;;;103.20;2022.40;;;;;;5099356;28;20035;-70
2020/12/08 00:46:19;;;;;;;2.00;0.90;;;128.10;2048.00;;;;;;5098938;28;20035;-72
2020/12/08 00:48:45;;;;;;;1.70;0.90;;;128.00;2048.00;;;;;;5098728;28;20028;-74
2020/12/08 00:51:11;;;;;;;1.58;0.80;;;103.30;2022.40;;;;;;5099472;28;20027;-72
2020/12/08 00:53:37;;;;;;;0.80;0.55;;;128.10;2048.00;;;;;;5099050;28;20032;-74
2020/12/08 00:56:11;;;;;;;0.95;0.40;;;103.30;2022.40;;;;;;5098837;28;20050;-73
2020/12/08 00:58:37;;;;;;;1.50;0.63;;;128.00;2048.00;;;;;;5099305;28;20028;-71
2020/12/08 01:01:07;;;;;;;0.77;0.50;;;128.10;2048.00;;;;;;5098773;28;20020;-71
2020/12/08 01:03:34;;;;;;;2.40;0.95;;;128.20;2048.00;;;;;;5098760;28;20038;-71
2020/12/08 01:06:01;;;;;;;1.65;0.75;;;128.00;2073.60;;;;;;5099078;28;20042;-71
2020/12/08 01:08:29;;;;;;;0.73;0.55;;;128.10;2048.00;;;;;;5098613;28;20495;-73
2020/12/08 01:10:56;;;;;;;2.00;0.90;;;103.00;2022.40;;;;;;5098514;28;20475;-71
2020/12/08 01:13:22;;;;;;;2.83;1.20;;;102.60;2048.00;;;;;;5098721;28;20032;-74
2020/12/08 01:15:49;;;;;;;1.13;0.60;;;102.70;2048.00;;;;;;5098390;28;20055;-72
2020/12/08 01:18:15;;;;;;;2.58;0.70;;;102.90;2048.00;;;;;;5098963;28;20318;-73
2020/12/08 01:20:41;;;;;;;1.70;0.77;;;103.00;2048.00;;;;;;5098661;28;20028;-70
2020/12/08 01:23:07;;;;;;;1.00;0.60;;;103.10;2048.00;;;;;;5098345;28;20031;-71
2020/12/08 01:25:34;;;;;;;2.13;0.93;;;102.90;2048.00;;;;;;5098482;28;20024;-72
2020/12/08 01:28:00;;;;;;;1.42;0.80;;;102.80;2073.60;;;;;;5098775;28;20020;-72
2020/12/08 01:30:26;;;;;;;13.45;5.88;;;102.80;2073.60;;;;;;5080314;28;20028;-72
2020/12/08 01:32:52;;;;;;;2.20;0.85;;;102.90;2073.60;;;;;;5098561;28;20377;-71
2020/12/08 01:35:18;;;;;;;1.40;0.80;;;102.60;2073.60;;;;;;5098052;28;20035;-73
2020/12/08 01:37:47;;;;;;;2.30;0.85;;;102.60;2073.60;;;;;;5097741;28;20437;-72
2020/12/08 01:40:13;;;;;;;2.45;1.00;;;77.60;2099.20;;;;;;5098564;28;20127;-72
2020/12/08 01:42:39;;;;;;;2.40;1.02;;;77.70;2124.80;;;;;;5097925;28;20058;-71
2020/12/08 01:45:05;;;;;;;1.83;1.00;;;77.50;2124.80;;;;;;5098160;28;20099;-72
2020/12/08 01:47:32;;;;;;;1.15;0.80;;;77.70;2124.80;;;;;;5098145;28;20322;-73
2020/12/08 01:49:58;;;;;;;3.95;1.00;;;102.40;2124.80;;;;;;5098056;28;20076;-72
2020/12/08 01:52:26;;;;;;;2.50;1.10;;;102.40;2124.80;;;;;;5097641;28;20039;-72
2020/12/08 01:54:53;;;;;;;2.35;1.17;;;77.50;2099.20;;;;;;5097969;28;20070;-71
2020/12/08 01:57:20;;;;;;;3.03;1.10;;;77.40;2201.60;;;;;;5097378;28;20376;-76
2020/12/08 01:59:46;;;;;;;2.67;1.10;;;77.70;2150.40;;;;;;5098209;28;20051;-73
2020/12/08 02:02:12;;;;;;;1.65;0.75;;;102.50;2073.60;;;;;;5079739;28;20410;-75
2020/12/08 02:04:38;;;;;;;2.67;0.90;;;102.40;2099.20;;;;;;5097856;28;20425;-72
2020/12/08 02:07:05;;;;;;;2.03;0.90;;;102.70;2073.60;;;;;;5098097;28;20027;-73
2020/12/08 02:09:33;;;;;;;3.38;1.33;;;102.80;2048.00;;;;;;5098048;28;20076;-72
2020/12/08 02:11:59;;;;;;;3.40;1.45;;;102.90;2048.00;;;;;;5097398;28;20342;-72
2020/12/08 02:14:25;;;;;;;6.45;1.63;;;103.00;2048.00;;;;;;5097696;28;20032;-73
2020/12/08 02:16:50;;;;;;;3.53;1.15;;;102.70;2073.60;;;;;;5097659;28;20145;-72
2020/12/08 02:19:16;;;;;;;2.70;1.40;;;102.40;2022.40;;;;;;5096833;28;20028;-73
2020/12/08 02:21:42;;;;;;;5.50;1.92;;;77.60;2073.60;;;;;;5097505;28;20022;-72
2020/12/08 02:24:08;;;;;;;4.35;1.77;;;102.50;2048.00;;;;;;5097277;28;20024;-73
2020/12/08 02:26:34;;;;;;;3.90;1.40;;;102.60;2022.40;;;;;;5097524;28;20329;-72
2020/12/08 02:28:59;;;;;;;3.85;1.55;;;102.60;2048.00;;;;;;5097776;28;20024;-73
2020/12/08 02:31:25;;;;;;;2.45;1.10;;;102.70;2048.00;;;;;;5097658;28;20303;-72
2020/12/08 02:33:51;;;;;;;1.52;0.90;;;102.80;2048.00;;;;;;5097436;28;20028;-72
2020/12/08 02:36:18;;;;;;;1.67;0.73;;;103.10;2022.40;;;;;;5097109;28;20414;-75
2020/12/08 02:38:43;;;;;;;1.30;0.65;;;102.70;2022.40;;;;;;5097366;28;20024;-72
2020/12/08 02:41:09;;;;;;;3.03;0.70;;;102.70;2048.00;;;;;;5097165;28;20176;-70
2020/12/08 02:43:35;;;;;;;1.92;0.77;;;102.80;2022.40;;;;;;5097300;28;20024;-74
2020/12/08 02:46:02;;;;;;;2.53;0.65;;;102.70;2048.00;;;;;;5097289;28;20028;-72
2020/12/08 02:48:28;;;;;;;22.17;10.77;;;102.50;2022.40;;;;;;5096982;28;20028;-71
2020/12/08 02:50:54;;;;;;;8.65;4.07;;;102.50;2048.00;;;;;;5097514;28;20077;-74
2020/12/08 02:53:20;;;;;;;11.30;6.88;;;102.60;1996.80;;;;;;5096584;28;20032;-73
2020/12/08 02:55:47;;;;;;;4.85;2.47;;;102.50;1996.80;;;;;;5097166;28;20024;-72
2020/12/08 02:58:13;;;;;;;1.85;0.90;;;102.50;1996.80;;;;;;5096894;28;20032;-72
2020/12/08 03:00:39;;;;;;;1.77;0.70;;;102.70;2022.40;;;;;;5097179;28;20093;-72
2020/12/08 03:03:05;;;;;;;2.55;0.80;;;102.40;1996.80;;;;;;5097122;28;20036;-73
2020/12/08 03:05:31;;;;;;;1.00;0.57;;;102.40;2022.40;;;;;;5097113;28;20341;-73
2020/12/08 03:07:56;;;;;;;1.13;0.65;;;102.50;2048.00;;;;;;5096802;28;20024;-72
2020/12/08 03:10:22;;;;;;;1.58;0.70;;;102.60;2073.60;;;;;;5096796;28;20106;-72
2020/12/08 03:12:48;;;;;;;1.10;0.60;;;102.80;2022.40;;;;;;5096930;28;20363;-72
2020/12/08 03:15:14;;;;;;;1.13;0.60;;;102.90;1996.80;;;;;;5096206;28;20020;-74
2020/12/08 03:17:39;;;;;;;1.15;0.70;;;102.80;1996.80;;;;;;5096983;28;20480;-75
2020/12/08 03:20:06;;;;;;;1.27;0.73;;;102.80;1971.20;;;;;;5096712;28;20020;-72
2020/12/08 03:22:32;;;;;;;2.88;0.85;;;102.40;1996.80;;;;;;5078602;28;20036;-74
2020/12/08 03:24:57;;;;;;;1.48;0.70;;;102.40;2022.40;;;;;;5096907;28;20031;-72
2020/12/08 03:27:23;;;;;;;1.02;0.65;;;102.40;1996.80;;;;;;5097169;28;20423;-71
2020/12/08 03:29:49;;;;;;;0.90;0.60;;;102.40;1996.80;;;;;;5096377;28;20027;-72
2020/12/08 03:32:15;;;;;;;1.23;0.70;;;102.40;2022.40;;;;;;5100709;28;20043;-72
2020/12/08 03:34:40;;;;;;;0.90;0.50;;;102.40;2022.40;;;;;;5100960;28;20125;-73
2020/12/08 03:37:06;;;;;;;1.48;0.80;;;102.40;1996.80;;;;;;5100094;28;20035;-73
2020/12/08 03:39:32;;;;;;;1.45;0.77;;;77.60;2022.40;;;;;;5100584;28;20100;-72
2020/12/08 03:42:00;;;;;;;0.98;0.50;;;77.50;2022.40;;;;;;5100450;28;20135;-71
2020/12/08 03:44:28;;;;;;;1.77;0.90;;;77.40;2048.00;;;;;;5099852;28;20065;-74
2020/12/08 03:46:56;;;;;;;1.58;0.85;;;77.10;2048.00;;;;;;5099917;28;20410;-71
2020/12/08 03:49:26;;;;;;;1.90;0.80;;;76.80;2099.20;;;;;;5099885;28;20028;-72
2020/12/08 03:51:52;;;;;;;1.42;0.80;;;76.90;2099.20;;;;;;5100583;28;20038;-70
2020/12/08 03:54:18;;;;;;;1.52;0.90;;;77.10;2073.60;;;;;;5100324;28;20020;-72
2020/12/08 03:56:45;;;;;;;1.73;0.80;;;76.90;2073.60;;;;;;5099726;28;20035;-73
2020/12/08 03:59:16;;;;;;;2.00;1.27;;;77.10;2073.60;;;;;;5100540;28;20311;-73
2020/12/08 04:01:45;;;;;;;3.35;1.60;;;76.90;2099.20;;;;;;5100202;28;20020;-74
2020/12/08 04:04:11;;;;;;;1.38;0.80;;;77.00;2099.20;;;;;;5100143;28;20031;-74
2020/12/08 04:06:37;;;;;;;2.80;1.08;;;77.00;2099.20;;;;;;5100353;28;20016;-74
2020/12/08 04:09:03;;;;;;;1.77;1.10;;;52.10;2099.20;;;;;;5100102;28;20023;-72
2020/12/08 04:11:29;;;;;;;2.35;1.00;;;76.90;2099.20;;;;;;5099605;28;20069;-76
2020/12/08 04:13:55;;;;;;;2.03;1.00;;;77.10;2073.60;;;;;;5100005;28;20032;-72
2020/12/08 04:16:20;;;;;;;1.80;0.90;;;77.20;2073.60;;;;;;5099889;28;20023;-72
2020/12/08 04:18:47;;;;;;;1.77;1.00;;;77.00;2073.60;;;;;;5099067;28;20024;-74
2020/12/08 04:21:28;;;;;;;1.92;0.90;;;77.10;2048.00;;;;;;5099817;28;20048;-74
2020/12/08 04:23:59;;;;;;;1.27;0.85;;;76.90;2073.60;;;;;;5100170;28;20026;-75
2020/12/08 04:26:26;;;;;;;1.55;0.90;;;77.00;2073.60;;;;;;5099369;28;20024;-72
2020/12/08 04:28:51;;;;;;;1.77;1.20;;;76.80;2099.20;;;;;;5099411;28;20414;-74
2020/12/08 04:31:17;;;;;;;1.67;1.00;;;52.10;2150.40;;;;;;5099372;28;20031;-70
2020/12/08 04:33:43;;;;;;;1.23;0.63;;;51.90;2176.00;;;;;;5099527;28;20032;-70
2020/12/08 04:36:16;;;;;;;2.00;1.00;;;52.00;2124.80;;;;;;5081293;28;20016;-73
2020/12/08 04:38:44;;;;;;;2.05;1.30;;;52.00;2124.80;;;;;;5099607;28;20548;-71
2020/12/08 04:41:21;;;;;;;1.88;1.23;;;76.80;2099.20;;;;;;5098512;28;20051;-71
2020/12/08 04:43:47;;;;;;;4.22;1.00;;;76.90;2073.60;;;;;;5099732;28;20111;-73
2020/12/08 04:46:17;;;;;;;1.65;1.00;;;76.80;2099.20;;;;;;5098741;28;20020;-72
2020/12/08 04:48:42;;;;;;;1.95;1.00;;;76.80;2099.20;;;;;;5099066;28;20027;-71
2020/12/08 04:51:08;;;;;;;1.92;0.82;;;52.10;2099.20;;;;;;5099182;28;20020;-74
2020/12/08 04:53:34;;;;;;;1.50;0.95;;;52.10;2099.20;;;;;;5098276;28;20110;-72
2020/12/08 04:56:00;;;;;;;1.60;1.02;;;52.10;2073.60;;;;;;5099106;28;20024;-74
2020/12/08 04:58:26;;;;;;;2.15;1.30;;;51.80;2124.80;;;;;;5099394;28;20321;-71
2020/12/08 05:00:52;;;;;;;2.88;1.23;;;51.90;2099.20;;;;;;5098475;28;20031;-73
2020/12/08 05:03:30;;;;;;;3.58;1.60;;;52.00;2073.60;;;;;;5099311;28;20110;-72
2020/12/08 05:05:55;;;;;;;4.70;3.10;;;52.10;2099.20;;;;;;5099258;28;20119;-72
2020/12/08 05:08:22;;;;;;;2.80;1.60;;;52.10;2073.60;;;;;;5098546;28;20055;-71
2020/12/08 05:10:48;;;;;;;4.15;2.70;;;51.70;2099.20;;;;;;5098270;28;20319;-72
2020/12/08 05:13:24;;;;;;;3.40;1.98;;;51.60;2124.80;;;;;;5098453;28;20094;-72
2020/12/08 05:16:07;;;;;;;2.72;1.70;;;51.60;2124.80;;;;;;5098947;28;20058;-73
2020/12/08 05:18:34;;;;;;;3.53;2.10;;;51.50;2124.80;;;;;;5098986;28;20028;-72
2020/12/08 05:21:13;;;;;;;10.68;8.73;;;51.70;2099.20;;;;;;5098605;28;20016;-72
2020/12/08 05:23:39;;;;;;;11.68;10.18;;;51.50;2150.40;;;;;;5098895;28;20031;-72
2020/12/08 05:26:13;;;;;;;5.45;3.85;;;51.70;2124.80;;;;;;5098825;28;20032;-73
2020/12/08 05:28:40;;;;;;;26.48;12.52;;;51.80;2099.20;;;;;;5098606;28;20415;-73
2020/12/08 05:31:07;;;;;;;12.90;5.78;;;51.90;2073.60;;;;;;5098430;28;20062;-71
2020/12/08 05:33:33;;;;;;;3.92;2.13;;;51.80;2099.20;;;;;;5098655;28;20125;-73
2020/12/08 05:36:00;;;;;;;2.67;1.90;;;51.50;2099.20;;;;;;5098311;28;20032;-72
2020/12/08 05:38:34;;;;;;;6.53;2.22;;;51.40;2150.40;;;;;;5098611;28;20024;-71
2020/12/08 05:41:05;;;;;;;2.95;1.80;;;51.60;2099.20;;;;;;5097908;28;20048;-74
2020/12/08 05:43:41;;;;;;;3.13;2.20;;;51.70;2099.20;;;;;;5097990;28;20411;-73
2020/12/08 05:46:09;;;;;;;2.47;1.40;;;51.80;2099.20;;;;;;5098465;28;20020;-73
2020/12/08 05:48:35;;;;;;;6.05;3.50;;;51.80;2099.20;;;;;;5098203;28;20110;-71
2020/12/08 05:51:05;;;;;;;43.47;22.55;;;51.90;2073.60;;;;;;5098085;28;20110;-72
2020/12/08 05:53:31;;;;;;;147.00;66.97;;;51.80;2099.20;;;;;;5097468;28;20096;-73
2020/12/08 05:56:07;;;;;;;66.05;29.83;;;51.60;2150.40;;;;;;5098029;28;20295;-73
2020/12/08 05:58:36;;;;;;;10.70;6.80;;;51.50;2150.40;;;;;;5097803;28;20024;-72
2020/12/08 06:01:09;;;;;;;6.60;4.63;;;51.50;2176.00;;;;;;5098160;28;20106;-70
2020/12/08 06:03:36;;;;;;;5.63;3.85;;;51.60;2150.40;;;;;;5097588;28;20119;-73
2020/12/08 06:06:10;;;;;;;4.80;3.47;;;51.50;2099.20;;;;;;5097433;28;20055;-72
2020/12/08 06:08:43;;;;;;;8.00;6.50;;;51.80;2124.80;;;;;;5098109;28;20028;-73
2020/12/08 06:11:09;;;;;;;3.95;3.00;;;51.80;2099.20;;;;;;5097727;28;20024;-71
2020/12/08 06:13:35;;;;;;;3.65;2.58;;;51.90;2099.20;;;;;;5097916;28;20032;-73
2020/12/08 06:16:22;;;;;;;3.80;2.00;;;51.90;2099.20;;;;;;5097399;28;20376;-72
2020/12/08 06:18:49;;;;;;;7.53;4.88;;;51.70;2124.80;;;;;;5097368;28;20027;-73
2020/12/08 06:21:28;;;;;;;7.18;4.05;;;51.90;2073.60;;;;;;5097069;28;20032;-72
2020/12/08 06:23:58;;;;;;;31.90;16.75;;;51.90;2099.20;;;;;;5094763;28;20024;-72
2020/12/08 06:26:36;;;;;;;30.05;19.42;;;52.10;2073.60;;;;;;5097413;28;20028;-74
2020/12/08 06:29:12;;;;;;;38.33;33.53;;;52.10;2073.60;;;;;;5097581;28;20106;-71
2020/12/08 06:31:46;;;;;;;6.10;4.57;;;76.80;2022.40;;;;;;5096742;28;20043;-71
2020/12/08 06:34:25;;;;;;;16.77;10.95;;;76.80;2048.00;;;;;;5097432;28;20054;-71
2020/12/08 06:36:52;;;;;;;12.07;7.07;;;76.90;2048.00;;;;;;5097211;28;20069;-72
2020/12/08 06:39:17;;;;;;;15.02;6.65;;;77.10;2022.40;;;;;;5097200;28;20024;-73
2020/12/08 06:41:44;;;;;;;11.02;6.90;;;52.10;2048.00;;;;;;5096969;28;20047;-72
2020/12/08 06:44:22;;;;;;;8.27;4.53;;;76.90;2073.60;;;;;;5096530;28;20039;-72
2020/12/08 06:46:57;;;;;;;6.88;4.10;;;77.10;2022.40;;;;;;5097397;28;20339;-72
2020/12/08 06:49:23;;;;;;;6.05;3.45;;;77.30;2022.40;;;;;;5097075;28;20024;-71
2020/12/08 06:51:56;;;;;;;7.55;4.20;;;77.20;1996.80;;;;;;5096382;28;20031;-71
2020/12/08 06:54:23;;;;;;;5.40;3.63;;;77.10;2073.60;;;;;;5096617;28;20031;-74
2020/12/08 06:56:49;;;;;;;5.72;3.00;;;77.20;2022.40;;;;;;5097266;28;20320;-74
2020/12/08 06:59:24;;;;;;;7.13;4.68;;;77.40;1971.20;;;;;;5096719;28;20093;-74
2020/12/08 07:01:54;;;;;;;6.35;4.88;;;77.10;2022.40;;;;;;5097179;28;20020;-72
2020/12/08 07:04:21;;;;;;;5.22;3.03;;;77.30;2022.40;;;;;;5097657;28;20024;-74
2020/12/08 07:06:48;;;;;;;9.60;6.53;;;77.30;1996.80;;;;;;5100726;28;20024;-74
2020/12/08 07:09:14;;;;;;;6.68;4.15;;;77.40;1996.80;;;;;;5100772;28;20046;-73
2020/12/08 07:11:40;;;;;;;8.73;6.15;;;77.60;1971.20;;;;;;5100726;28;20326;-73
2020/12/08 07:14:06;;;;;;;8.70;5.78;;;77.60;1945.60;;;;;;5100699;28;20024;-73
2020/12/08 07:16:36;;;;;;;10.27;5.75;;;77.60;1971.20;;;;;;5100557;28;20020;-76
2020/12/08 07:19:04;;;;;;;8.45;5.72;;;77.40;1996.80;;;;;;5100839;28;20020;-73
2020/12/08 07:21:30;;;;;;;9.15;4.45;;;77.20;2022.40;;;;;;5100656;28;20031;-76
2020/12/08 07:23:56;;;;;;;6.20;4.03;;;77.40;2022.40;;;;;;5100837;28;20028;-73
2020/12/08 07:26:30;;;;;;;6.72;4.72;;;77.50;2022.40;;;;;;5082223;28;20051;-74
2020/12/08 07:28:57;;;;;;;6.75;4.30;;;102.50;1996.80;;;;;;5100683;28;20414;-73
2020/12/08 07:31:31;;;;;;;7.13;4.68;;;102.50;1971.20;;;;;;5100518;28;20056;-74
2020/12/08 07:33:58;;;;;;;7.53;4.65;;;102.80;1971.20;;;;;;5100524;28;20038;-74
2020/12/08 07:36:32;;;;;;;9.63;7.15;;;102.60;1971.20;;;;;;5100414;28;20024;-73
2020/12/08 07:39:00;;;;;;;7.47;5.05;;;102.80;1971.20;;;;;;5100827;28;20024;-73
2020/12/08 07:41:30;;;;;;;10.30;6.28;;;103.10;1945.60;;;;;;5100019;28;20047;-73
2020/12/08 07:43:57;;;;;;;10.38;6.75;;;103.20;1920.00;;;;;;5100419;28;20439;-73
2020/12/08 07:46:27;;;;;;;11.38;7.85;;;128.00;1945.60;;;;;;5099998;28;20016;-74
2020/12/08 07:49:08;;;;;;;9.68;5.05;;;128.30;1945.60;;;;;;5100330;28;20402;-73
2020/12/08 07:51:35;;;;;;;9.07;5.40;;;128.10;1945.60;;;;;;5100434;28;20016;-74
2020/12/08 07:54:03;;;;;;;8.52;6.00;;;128.00;1945.60;;;;;;5099935;28;20054;-73
2020/12/08 07:56:35;;;;;;;7.47;4.78;;;128.30;1920.00;;;;;;5099866;28;20035;-73
2020/12/08 07:59:02;;;;;;;7.10;4.07;;;128.00;1945.60;;;;;;5100463;28;20024;-73
2020/12/08 08:01:28;;;;;;;20.70;10.23;;;128.10;1945.60;;;;;;5099940;28;20026;-74
2020/12/08 08:03:54;;;;;;;12.63;7.03;;;103.20;1894.40;;;;;;5100005;28;20476;-74
2020/12/08 08:06:24;;;;;;;7.88;5.82;;;103.20;1945.60;;;;;;5099242;28;20106;-73
2020/12/08 08:08:51;;;;;;;6.40;5.43;;;128.30;1945.60;;;;;;5099976;28;20020;-73
2020/12/08 08:11:18;;;;;;;3.47;2.40;;;128.60;1920.00;;;;;;5099565;28;20414;-73
2020/12/08 08:13:45;;;;;;;7.40;6.43;;;128.40;1920.00;;;;;;5099138;28;20079;-73
2020/12/08 08:16:12;;;;;;;5.57;2.40;;;128.80;1894.40;;;;;;5098234;28;20020;-72
2020/12/08 08:18:38;;;;;;;5.78;4.50;;;128.60;1894.40;;;;;;5099411;28;20034;-74
2020/12/08 08:21:04;;;;;;;7.20;4.50;;;128.90;1894.40;;;;;;5099957;28;20063;-74
2020/12/08 08:23:30;;;;;;;7.05;4.65;;;153.80;1843.20;;;;;;5098915;28;20038;-71
2020/12/08 08:25:57;;;;;;;8.35;6.07;;;153.80;1843.20;;;;;;5099517;28;20020;-74
2020/12/08 08:28:24;;;;;;;5.35;3.90;;;154.00;1868.80;;;;;;5099766;28;20032;-72
2020/12/08 08:30:50;;;;;;;17.45;15.65;;;154.20;1843.20;;;;;;5098193;28;20111;-72
2020/12/08 08:33:16;;;;;;;6.70;4.72;;;154.40;1792.00;;;;;;5097230;28;20066;-73
2020/12/08 08:35:43;;;;;;;23.25;14.00;;;154.50;1792.00;;;;;;5097438;28;20020;-72
2020/12/08 08:38:08;;;;;;;9.80;6.30;;;179.30;1792.00;;;;;;5098759;28;20102;-71
2020/12/08 08:40:34;;;;;;;13.23;11.77;;;179.20;1792.00;;;;;;5098764;28;20119;-72
2020/12/08 08:43:00;;;;;;;16.42;13.90;;;179.40;1792.00;;;;;;5098862;28;20020;-72
2020/12/08 08:45:27;;;;;;;5.57;3.97;;;179.40;1792.00;;;;;;5098208;28;20027;-72
2020/12/08 08:47:53;;;;;;;5.13;4.32;;;179.50;1766.40;;;;;;5098719;28;20069;-74
2020/12/08 08:50:19;;;;;;;7.53;5.80;;;179.40;1766.40;;;;;;5098369;28;20023;-73
2020/12/08 08:52:45;;;;;;;16.08;8.38;;;179.30;1792.00;;;;;;5099095;28;20032;-70
2020/12/08 08:55:11;;;;;;;8.35;5.10;;;179.30;1792.00;;;;;;5099325;28;20076;-72
2020/12/08 08:57:40;;;;;;;7.82;4.63;;;153.80;1868.80;;;;;;5098454;28;20024;-73
2020/12/08 09:00:07;;;;;;;3.92;2.50;;;154.00;1894.40;;;;;;5098392;28;20100;-74
2020/12/08 09:02:34;;;;;;;4.00;2.90;;;154.30;1894.40;;;;;;5099163;28;20410;-74
2020/12/08 09:05:00;;;;;;;4.78;3.10;;;154.50;1843.20;;;;;;5098600;28;20028;-74
2020/12/08 09:07:28;;;;;;;6.53;5.50;;;179.50;1843.20;;;;;;5098987;28;20031;-74
2020/12/08 09:09:55;;;;;;;4.80;2.97;;;179.50;1843.20;;;;;;5099014;28;20020;-73
2020/12/08 09:12:20;;;;;;;6.10;3.80;;;179.40;1817.60;;;;;;5098659;28;20032;-73
2020/12/08 09:14:47;;;;;;;6.85;4.03;;;154.50;1920.00;;;;;;5098887;28;20035;-73
2020/12/08 09:17:13;;;;;;;5.95;3.08;;;154.50;1868.80;;;;;;5098524;28;20027;-73
2020/12/08 09:19:39;;;;;;;6.18;4.00;;;154.40;1868.80;;;;;;5097826;28;20052;-74
2020/12/08 09:22:06;;;;;;;5.22;3.25;;;179.40;1843.20;;;;;;5098769;28;20032;-75
2020/12/08 09:24:33;;;;;;;4.80;3.03;;;179.20;1843.20;;;;;;5098460;28;20027;-74
2020/12/08 09:26:59;;;;;;;5.75;4.00;;;154.50;1868.80;;;;;;5098399;28;20107;-75
2020/12/08 09:29:26;;;;;;;6.50;4.10;;;179.40;1843.20;;;;;;5098260;28;20050;-74
2020/12/08 09:31:56;;;;;;;7.20;5.05;;;179.70;1817.60;;;;;;5098151;28;20024;-74
2020/12/08 09:34:23;;;;;;;5.32;3.10;;;179.90;1817.60;;;;;;5090321;28;20024;-74
2020/12/08 09:36:51;;;;;;;6.18;3.55;;;179.80;1817.60;;;;;;5078262;28;20055;-74
2020/12/08 09:39:18;;;;;;;7.75;4.10;;;179.50;1843.20;;;;;;5087619;28;20039;-75
2020/12/08 09:41:43;;;;;;;7.15;3.45;;;179.70;1868.80;;;;;;5098156;28;20055;-73
2020/12/08 09:44:10;;;;;;;9.52;4.50;;;179.80;1843.20;;;;;;5098385;28;20331;-74
2020/12/08 09:46:39;;;;;;;10.35;8.98;;;179.50;1843.20;;;;;;5097116;28;20342;-75
2020/12/08 09:49:06;;;;;;;5.72;3.25;;;179.80;1868.80;;;;;;5097858;28;20442;-75
2020/12/08 09:51:32;;;;;;;5.10;3.38;;;179.60;1843.20;;;;;;5097723;28;20031;-74
2020/12/08 09:53:58;;;;;;;4.70;2.97;;;179.60;1868.80;;;;;;5096906;28;20038;-74
2020/12/08 09:56:24;;;;;;;5.95;3.95;;;179.80;1868.80;;;;;;5098187;28;20020;-74
2020/12/08 09:58:54;;;;;;;5.82;3.83;;;180.00;1894.40;;;;;;5096382;28;20522;-73
2020/12/08 10:01:33;;;;;;;8.88;4.60;;;205.10;1817.60;;;;;;5097551;28;20361;-74
2020/12/08 10:04:00;;;;;;;7.05;4.43;;;205.40;1817.60;;;;;;5097971;28;20081;-73
2020/12/08 10:06:27;;;;;;;5.70;4.25;;;230.40;1766.40;;;;;;5097665;28;20414;-75
2020/12/08 10:08:56;;;;;;;7.72;4.82;;;230.50;1766.40;;;;;;5097411;28;20114;-74
2020/12/08 10:11:23;;;;;;;4.57;2.60;;;230.40;1766.40;;;;;;5097927;28;20085;-74
2020/12/08 10:13:49;;;;;;;5.68;4.20;;;230.70;1740.80;;;;;;5097423;28;20123;-75
2020/12/08 10:16:23;;;;;;;7.05;4.40;;;231.10;1689.60;;;;;;5096965;28;20533;-75
2020/12/08 10:18:49;;;;;;;6.40;4.25;;;256.00;1638.40;;;;;;5097522;28;20028;-75
2020/12/08 10:21:22;;;;;;;5.38;3.72;;;231.20;1638.40;;;;;;5097170;28;20106;-75
2020/12/08 10:23:50;;;;;;;5.25;3.55;;;230.70;1664.00;;;;;;5097329;28;20042;-74
2020/12/08 10:26:16;;;;;;;7.93;3.97;;;230.70;1664.00;;;;;;5097148;28;20445;-76
2020/12/08 10:28:41;;;;;;;6.20;3.70;;;231.10;1638.40;;;;;;5096784;28;20110;-75
2020/12/08 10:31:07;;;;;;;6.57;4.22;;;230.80;1638.40;;;;;;5097579;28;20024;-74
2020/12/08 10:33:33;;;;;;;5.60;3.67;;;230.70;1664.00;;;;;;5097327;28;20062;-74
2020/12/08 10:36:00;;;;;;;15.95;9.02;;;230.80;1638.40;;;;;;5096948;28;20069;-74
2020/12/08 10:38:27;;;;;;;15.85;9.52;;;230.50;1689.60;;;;;;5097154;28;20028;-74
2020/12/08 10:40:53;;;;;;;7.75;4.88;;;230.50;1664.00;;;;;;5096336;28;20052;-74
2020/12/08 10:43:19;;;;;;;16.35;10.45;;;205.60;1689.60;;;;;;5096637;28;20035;-74
2020/12/08 10:45:50;;;;;;;140.75;82.55;;;205.70;1664.00;;;;;;5096887;28;20449;-74
2020/12/08 10:48:16;;;;;;;50.67;30.83;;;230.50;1664.00;;;;;;5097160;28;20066;-75
2020/12/08 10:50:42;;;;;;;24.13;16.70;;;230.50;1689.60;;;;;;5096834;28;20024;-74
2020/12/08 10:53:08;;;;;;;9.57;6.32;;;205.70;1689.60;;;;;;5078423;28;20056;-74
2020/12/08 10:55:35;;;;;;;48.60;33.10;;;205.60;1664.00;;;;;;5096907;28;20067;-73
2020/12/08 10:58:02;;;;;;;39.60;31.15;;;205.60;1689.60;;;;;;5096775;28;20020;-74
2020/12/08 11:00:29;;;;;;;23.25;20.23;;;205.40;1689.60;;;;;;5097357;28;20049;-74
2020/12/08 11:02:55;;;;;;;15.38;9.02;;;205.50;1715.20;;;;;;5096581;28;20027;-74
2020/12/08 11:05:21;;;;;;;12.38;9.13;;;205.20;1715.20;;;;;;5096707;28;20442;-74
2020/12/08 11:07:47;;;;;;;23.92;18.55;;;205.00;1715.20;;;;;;5096475;28;20140;-74
2020/12/08 11:10:12;;;;;;;14.93;11.88;;;205.00;1715.20;;;;;;5096666;28;20028;-75
2020/12/08 11:12:38;;;;;;;12.73;9.75;;;205.00;1740.80;;;;;;5096842;28;20423;-74
2020/12/08 11:15:04;;;;;;;9.25;6.80;;;205.10;1715.20;;;;;;5097161;28;20028;-75
2020/12/08 11:17:32;;;;;;;11.60;8.55;;;205.20;1715.20;;;;;;5096137;28;20044;-74
2020/12/08 11:19:58;;;;;;;9.18;6.88;;;205.10;1740.80;;;;;;5096759;28;20389;-75
2020/12/08 11:22:23;;;;;;;8.68;7.07;;;205.10;1740.80;;;;;;5096439;28;20024;-74
2020/12/08 11:24:49;;;;;;;11.00;8.88;;;204.90;1766.40;;;;;;5096526;28;20349;-74
2020/12/08 11:27:18;;;;;;;10.75;7.03;;;204.90;1740.80;;;;;;5097000;28;20024;-74
2020/12/08 11:29:45;;;;;;;10.07;7.35;;;205.20;1740.80;;;;;;5078582;28;20407;-74
2020/12/08 11:32:15;;;;;;;8.45;6.57;;;205.10;1740.80;;;;;;5096370;28;20047;-74
2020/12/08 11:34:42;;;;;;;9.05;6.45;;;205.00;1740.80;;;;;;5096680;28;20020;-73
2020/12/08 11:37:07;;;;;;;7.93;5.28;;;205.00;1715.20;;;;;;5096108;28;20405;-74
2020/12/08 11:39:34;;;;;;;23.98;16.10;;;204.80;1740.80;;;;;;5095914;28;20055;-74
2020/12/08 11:42:00;;;;;;;11.68;7.95;;;205.10;1715.20;;;;;;5096890;28;20048;-73
2020/12/08 11:44:26;;;;;;;10.00;6.22;;;205.20;1715.20;;;;;;5095883;28;20027;-73
2020/12/08 11:46:52;;;;;;;7.63;5.57;;;205.30;1664.00;;;;;;5095343;28;20012;-75
2020/12/08 11:49:19;;;;;;;7.88;4.97;;;205.40;1689.60;;;;;;5078657;28;20322;-74
2020/12/08 11:51:45;;;;;;;7.38;4.80;;;204.90;1715.20;;;;;;5097219;28;20032;-74
2020/12/08 11:54:11;;;;;;;6.72;4.93;;;179.60;1792.00;;;;;;5100174;28;20032;-73
2020/12/08 11:56:37;;;;;;;6.97;4.63;;;179.30;1868.80;;;;;;5100437;28;20402;-73
2020/12/08 11:59:04;;;;;;;6.35;5.40;;;179.40;1817.60;;;;;;5100145;28;20407;-74
2020/12/08 12:01:30;;;;;;;11.02;6.00;;;179.80;1792.00;;;;;;5099665;28;20028;-73
2020/12/08 12:03:57;;;;;;;8.57;5.72;;;179.90;1766.40;;;;;;5099841;28;20445;-73
2020/12/08 12:06:22;;;;;;;13.55;8.57;;;179.90;1766.40;;;;;;5081105;28;20403;-73
2020/12/08 12:08:48;;;;;;;8.63;5.88;;;179.90;1792.00;;;;;;5098633;28;20111;-72
2020/12/08 12:11:14;;;;;;;11.18;9.20;;;180.00;1792.00;;;;;;5099551;28;20024;-72
2020/12/08 12:13:40;;;;;;;7.07;5.20;;;205.40;1715.20;;;;;;5098994;28;20085;-73
2020/12/08 12:16:05;;;;;;;6.72;4.78;;;230.60;1638.40;;;;;;5099728;28;20024;-74
2020/12/08 12:18:32;;;;;;;7.90;6.47;;;205.70;1689.60;;;;;;5099420;28;20028;-73